Time;durP1;ratioP1;P1;durP2;ratioP2;P2;SDS_P1;SDS_P2;PMS_P1;PMS_P2;Temp;Humidity;BMP_temperature;BMP_pressure;BME280_temperature;BME280_humidity;BME280_pressure;Samples;Min_cycle;Max_cycle;Signal;HPM_P1;HPM_P2
2022/05/26 00:01:29;;;;;;;2.15;0.68;;;19.20;52.80;;;;;;4975833;28;20049;-50
2022/05/26 00:03:59;;;;;;;0.95;0.60;;;19.20;52.90;;;;;;4988570;28;20050;-52
2022/05/26 00:06:29;;;;;;;2.28;0.88;;;19.20;53.00;;;;;;4991362;28;20057;-50
2022/05/26 00:08:59;;;;;;;1.08;0.70;;;19.20;53.30;;;;;;4992492;28;20076;-52
2022/05/26 00:11:36;;;;;;;1.00;0.90;;;19.20;53.20;;;;;;4992131;28;20034;-48
2022/05/26 00:14:07;;;;;;;1.58;0.70;;;19.20;53.50;;;;;;4987320;28;20038;-48
2022/05/26 00:16:43;;;;;;;1.83;0.90;;;19.20;53.30;;;;;;4974272;28;20082;-47
2022/05/26 00:19:12;;;;;;;1.20;0.70;;;19.20;53.50;;;;;;4992416;28;20406;-48
2022/05/26 00:21:39;;;;;;;1.70;0.60;;;19.20;53.40;;;;;;4986968;28;20038;-49
2022/05/26 00:24:09;;;;;;;2.67;1.83;;;19.20;53.40;;;;;;4991867;28;20046;-50
2022/05/26 00:26:37;;;;;;;;;;;19.10;53.50;;;;;;4984100;28;20052;-48
2022/05/26 00:29:12;;;;;;;2.55;0.90;;;19.20;53.00;;;;;;4991922;28;19975;-52
2022/05/26 00:31:40;;;;;;;2.30;1.00;;;19.20;53.20;;;;;;4986075;28;20162;-49
2022/05/26 00:34:15;;;;;;;2.30;0.88;;;19.10;53.20;;;;;;4988986;28;20045;-51
2022/05/26 00:36:53;;;;;;;1.75;0.55;;;19.10;53.50;;;;;;4990780;28;20074;-49
2022/05/26 00:39:22;;;;;;;1.55;0.95;;;19.10;54.10;;;;;;4991852;28;20592;-51
2022/05/26 00:41:58;;;;;;;0.88;0.82;;;19.10;54.00;;;;;;4990010;28;20125;-52
2022/05/26 00:44:25;;;;;;;2.42;0.95;;;19.10;54.10;;;;;;4989717;28;20053;-52
2022/05/26 00:47:15;;;;;;;1.67;1.00;;;19.10;54.20;;;;;;4991111;28;20050;-47
2022/05/26 00:50:03;;;;;;;2.35;0.70;;;19.10;54.40;;;;;;4988312;28;20042;-47
2022/05/26 00:52:42;;;;;;;1.67;1.00;;;19.10;54.80;;;;;;4991203;28;20042;-50
2022/05/26 00:55:15;;;;;;;1.80;1.23;;;19.10;54.70;;;;;;4990606;28;20045;-51
2022/05/26 00:57:54;;;;;;;1.45;0.93;;;19.10;54.80;;;;;;4974408;28;20097;-51
2022/05/26 01:00:33;;;;;;;1.38;0.90;;;19.00;54.90;;;;;;4973559;28;20097;-51
2022/05/26 01:03:15;;;;;;;1.75;0.85;;;19.00;55.30;;;;;;4991723;28;20046;-52
2022/05/26 01:06:09;;;;;;;1.25;0.75;;;19.00;55.20;;;;;;4990545;28;20050;-52
2022/05/26 01:08:54;;;;;;;1.02;0.70;;;19.00;55.20;;;;;;4984387;28;20050;-52
2022/05/26 01:11:27;;;;;;;2.13;0.88;;;19.00;55.30;;;;;;4989340;28;20039;-49
2022/05/26 01:14:05;;;;;;;0.98;0.90;;;19.00;55.10;;;;;;4990941;28;20089;-52
2022/05/26 01:16:43;;;;;;;2.55;0.90;;;19.00;55.50;;;;;;4989125;28;20506;-47
2022/05/26 01:19:36;;;;;;;1.20;1.02;;;19.00;55.90;;;;;;4990181;28;20113;-52
2022/05/26 01:22:08;;;;;;;1.48;0.80;;;19.00;55.30;;;;;;4986268;28;20088;-51
2022/05/26 01:25:15;;;;;;;1.08;0.80;;;19.00;55.70;;;;;;4990058;28;20096;-49
2022/05/26 01:28:02;;;;;;;2.33;0.90;;;18.90;56.00;;;;;;4972719;28;20043;-51
2022/05/26 01:30:55;;;;;;;1.15;0.95;;;18.90;55.60;;;;;;4990437;28;20108;-50
2022/05/26 01:33:52;;;;;;;2.63;1.17;;;18.90;56.20;;;;;;4991257;28;20117;-51
2022/05/26 01:36:40;;;;;;;4.10;1.58;;;18.90;56.30;;;;;;4986695;28;20052;-48
2022/05/26 01:39:22;;;;;;;1.25;1.00;;;19.00;56.50;;;;;;4991060;28;20441;-48
2022/05/26 01:41:58;;;;;;;1.75;0.90;;;18.90;56.50;;;;;;4971243;28;20093;-52
2022/05/26 01:45:03;;;;;;;0.77;0.70;;;18.90;56.50;;;;;;4986483;28;20042;-48
2022/05/26 01:47:59;;;;;;;1.23;0.95;;;18.90;56.80;;;;;;4986368;28;20047;-48
2022/05/26 01:50:33;;;;;;;2.80;1.15;;;18.90;57.30;;;;;;4988756;28;20046;-50
2022/05/26 01:53:06;;;;;;;3.08;1.38;;;18.90;56.40;;;;;;4982968;28;20129;-48
2022/05/26 01:55:42;;;;;;;1.50;1.10;;;18.80;56.80;;;;;;4989365;28;20050;-51
2022/05/26 01:58:24;;;;;;;1.15;0.90;;;18.80;56.60;;;;;;4990401;28;20101;-50
2022/05/26 02:00:56;;;;;;;2.13;1.00;;;18.80;57.10;;;;;;4968264;28;20093;-51
2022/05/26 02:03:27;;;;;;;3.55;1.17;;;18.80;57.10;;;;;;4989420;28;20057;-51
2022/05/26 02:06:04;;;;;;;2.50;1.23;;;18.80;57.20;;;;;;4986540;28;20046;-51
2022/05/26 02:08:37;;;;;;;3.17;1.30;;;18.70;57.30;;;;;;4990523;28;20529;-50
2022/05/26 02:11:14;;;;;;;1.63;1.33;;;18.70;57.40;;;;;;4991007;28;20556;-51
2022/05/26 02:14:20;;;;;;;4.20;1.17;;;18.70;57.60;;;;;;4988513;28;20030;-51
2022/05/26 02:16:55;;;;;;;1.30;1.20;;;18.70;58.00;;;;;;4983492;28;20904;-51
2022/05/26 02:19:35;;;;;;;5.28;2.15;;;18.70;57.80;;;;;;4990568;28;20050;-51
2022/05/26 02:22:19;;;;;;;2.92;1.45;;;18.60;57.90;;;;;;4986968;28;20060;-50
2022/05/26 02:25:10;;;;;;;2.40;1.80;;;18.70;58.30;;;;;;4984506;28;20053;-48
2022/05/26 02:27:38;;;;;;;2.13;1.30;;;18.60;58.20;;;;;;4990129;28;20042;-49
2022/05/26 02:30:05;;;;;;;2.58;1.42;;;18.60;57.60;;;;;;4990747;28;20069;-49
2022/05/26 02:32:45;;;;;;;3.17;1.50;;;18.60;57.80;;;;;;4990818;28;20130;-50
2022/05/26 02:35:18;;;;;;;3.30;1.55;;;18.60;58.20;;;;;;4982867;28;20050;-46
2022/05/26 02:37:49;;;;;;;1.70;1.50;;;18.60;58.30;;;;;;4990430;28;20101;-47
2022/05/26 02:40:17;;;;;;;1.40;1.30;;;18.60;58.10;;;;;;4990939;28;20054;-52
2022/05/26 02:42:50;;;;;;;2.83;1.65;;;18.60;58.10;;;;;;4984589;28;20049;-51
2022/05/26 02:45:43;;;;;;;1.90;1.40;;;18.60;58.50;;;;;;4986596;28;20497;-50
2022/05/26 02:48:32;;;;;;;3.75;1.45;;;18.60;58.70;;;;;;4990205;28;20096;-51
2022/05/26 02:51:16;;;;;;;4.80;1.75;;;18.60;58.40;;;;;;4990049;28;20045;-52
2022/05/26 02:54:11;;;;;;;2.88;1.60;;;18.60;58.80;;;;;;4987505;28;20089;-52
2022/05/26 02:56:56;;;;;;;1.27;1.17;;;18.60;59.00;;;;;;4955956;28;20124;-47
2022/05/26 02:59:45;;;;;;;3.05;1.50;;;18.60;58.60;;;;;;4990540;28;20046;-51
2022/05/26 03:02:21;;;;;;;2.70;1.48;;;18.60;58.70;;;;;;4983830;28;20066;-51
2022/05/26 03:05:17;;;;;;;3.00;1.50;;;18.60;58.80;;;;;;4992403;28;20038;-51
2022/05/26 03:07:45;;;;;;;2.78;1.42;;;18.60;59.20;;;;;;4964694;28;20050;-48
2022/05/26 03:10:15;;;;;;;4.20;1.70;;;18.60;58.70;;;;;;4992846;28;20073;-52
2022/05/26 03:12:43;;;;;;;2.13;1.33;;;18.50;58.70;;;;;;4989162;28;20108;-47
2022/05/26 03:15:16;;;;;;;3.80;1.77;;;18.50;58.80;;;;;;4995274;28;20085;-51
2022/05/26 03:17:43;;;;;;;3.08;1.55;;;18.50;58.90;;;;;;4993480;28;20077;-48
2022/05/26 03:20:10;;;;;;;2.70;1.48;;;18.50;59.20;;;;;;4984767;28;20426;-50
2022/05/26 03:22:38;;;;;;;5.38;1.88;;;18.50;59.30;;;;;;4995481;28;20049;-52
2022/05/26 03:25:10;;;;;;;3.92;1.80;;;18.50;59.50;;;;;;4996963;28;20038;-52
2022/05/26 03:27:37;;;;;;;7.05;1.67;;;18.50;59.90;;;;;;4993841;28;20046;-52
2022/05/26 03:30:04;;;;;;;3.20;2.00;;;18.50;59.70;;;;;;4988296;28;20490;-52
2022/05/26 03:32:31;;;;;;;5.07;2.10;;;18.50;59.90;;;;;;4993900;28;20510;-49
2022/05/26 03:43:37;;;;;;;4.18;2.20;;;18.40;60.00;;;;;;4992970;28;20518;-49
2022/05/26 03:46:06;;;;;;;4.65;2.22;;;18.40;60.40;;;;;;5000686;28;20045;-48
2022/05/26 03:48:33;;;;;;;4.85;2.65;;;18.40;60.10;;;;;;4996239;28;20117;-49
2022/05/26 03:51:06;;;;;;;3.67;1.95;;;18.40;60.20;;;;;;4997752;28;20038;-48
2022/05/26 03:53:35;;;;;;;4.78;2.53;;;18.40;60.40;;;;;;5001796;28;20457;-51
2022/05/26 03:56:07;;;;;;;5.20;2.67;;;18.40;60.40;;;;;;4996596;28;20505;-51
2022/05/26 03:58:35;;;;;;;6.45;2.25;;;18.30;60.40;;;;;;4998993;28;20479;-47
2022/05/26 04:01:04;;;;;;;3.63;2.58;;;18.30;60.50;;;;;;4993305;28;20101;-48
2022/05/26 04:03:31;;;;;;;5.97;2.17;;;18.30;60.70;;;;;;4993129;28;20050;-52
2022/05/26 04:06:00;;;;;;;5.78;2.55;;;18.30;60.90;;;;;;4992268;28;20778;-49
2022/05/26 04:08:27;;;;;;;4.53;2.08;;;18.30;60.90;;;;;;4987544;28;20069;-52
2022/05/26 04:10:56;;;;;;;6.13;2.05;;;18.30;60.90;;;;;;4993124;28;20041;-47
2022/05/26 04:13:31;;;;;;;5.90;3.08;;;18.30;61.00;;;;;;4992412;28;20064;-50
2022/05/26 04:15:59;;;;;;;7.80;3.35;;;18.30;61.10;;;;;;4990436;28;20038;-48
2022/05/26 04:18:28;;;;;;;7.13;2.92;;;18.30;60.90;;;;;;4989332;28;20605;-49
2022/05/26 04:21:14;;;;;;;6.90;2.40;;;18.30;60.90;;;;;;4992959;28;20061;-48
2022/05/26 04:23:41;;;;;;;5.78;2.63;;;18.30;61.10;;;;;;4992983;28;20047;-48
2022/05/26 04:26:09;;;;;;;5.85;2.72;;;18.30;60.90;;;;;;4988924;28;20046;-47
2022/05/26 04:28:37;;;;;;;8.68;2.78;;;18.30;61.00;;;;;;4984336;28;20042;-48
2022/05/26 04:31:04;;;;;;;5.25;2.75;;;18.30;61.10;;;;;;4992691;28;20045;-51
2022/05/26 04:33:32;;;;;;;4.43;2.60;;;18.30;61.00;;;;;;4992488;28;20030;-47
2022/05/26 04:36:09;;;;;;;6.95;3.03;;;18.40;61.10;;;;;;4988984;28;20049;-47
2022/05/26 04:38:39;;;;;;;6.40;2.95;;;18.30;61.20;;;;;;4984449;28;20093;-49
2022/05/26 04:41:09;;;;;;;4.85;2.80;;;18.30;61.70;;;;;;4992441;28;20050;-47
2022/05/26 04:43:40;;;;;;;10.15;2.95;;;18.30;61.30;;;;;;4992556;28;20466;-48
2022/05/26 04:46:09;;;;;;;6.32;3.15;;;18.30;61.20;;;;;;4983747;28;20050;-52
2022/05/26 04:48:43;;;;;;;6.50;2.88;;;18.30;61.20;;;;;;4984812;28;20096;-52
2022/05/26 04:51:10;;;;;;;6.88;3.30;;;18.30;61.20;;;;;;4990065;28;20042;-52
2022/05/26 04:53:37;;;;;;;6.13;2.95;;;18.30;61.20;;;;;;4985070;28;20104;-52
2022/05/26 04:56:06;;;;;;;6.60;2.72;;;18.30;61.30;;;;;;4988441;28;20035;-49
2022/05/26 04:58:33;;;;;;;5.85;3.22;;;18.40;61.60;;;;;;4991879;28;20402;-52
2022/05/26 05:01:02;;;;;;;7.50;3.25;;;18.50;61.60;;;;;;4992490;28;20046;-52
2022/05/26 05:03:33;;;;;;;6.50;3.10;;;18.40;61.40;;;;;;4985789;28;20058;-51
2022/05/26 05:06:09;;;;;;;8.60;3.30;;;18.50;61.60;;;;;;4990820;28;20042;-48
2022/05/26 05:08:39;;;;;;;7.05;2.83;;;18.50;61.70;;;;;;4973876;28;20038;-52
2022/05/26 05:11:06;;;;;;;9.80;3.25;;;18.50;61.30;;;;;;4991280;28;20034;-51
2022/05/26 05:13:35;;;;;;;7.43;3.33;;;18.50;61.30;;;;;;4988308;28;20046;-52
2022/05/26 05:16:22;;;;;;;8.52;3.45;;;18.60;61.30;;;;;;4990626;28;20038;-52
2022/05/26 05:18:51;;;;;;;11.10;5.25;;;18.60;61.40;;;;;;4987777;28;20046;-48
2022/05/26 05:21:23;;;;;;;7.70;3.53;;;18.60;61.20;;;;;;4997923;28;20046;-51
2022/05/26 05:23:58;;;;;;;7.07;3.80;;;18.60;61.30;;;;;;4995384;28;20042;-50
2022/05/26 05:26:34;;;;;;;8.80;3.85;;;18.70;61.30;;;;;;4987971;28;20046;-49
2022/05/26 05:29:10;;;;;;;7.82;3.28;;;18.70;61.40;;;;;;4998323;28;20513;-49
2022/05/26 05:31:41;;;;;;;5.75;3.17;;;18.70;61.50;;;;;;4983178;28;20375;-48
2022/05/26 05:34:24;;;;;;;9.85;4.55;;;18.70;61.00;;;;;;4989149;28;20050;-48
2022/05/26 05:36:51;;;;;;;6.32;3.45;;;18.80;61.10;;;;;;4983923;28;20038;-49
2022/05/26 05:39:24;;;;;;;9.15;4.22;;;18.80;61.00;;;;;;4991284;28;20052;-48
2022/05/26 05:42:06;;;;;;;7.93;3.45;;;18.80;60.90;;;;;;4987604;28;20050;-52
2022/05/26 05:44:36;;;;;;;8.75;3.60;;;18.90;60.90;;;;;;4990190;28;20042;-52
2022/05/26 05:47:08;;;;;;;7.55;3.65;;;18.90;60.90;;;;;;4991703;28;20502;-49
2022/05/26 05:49:35;;;;;;;10.88;5.15;;;18.90;60.90;;;;;;4987630;28;20066;-49
2022/05/26 05:52:24;;;;;;;6.00;3.38;;;18.90;60.70;;;;;;4983168;28;20034;-48
2022/05/26 05:55:08;;;;;;;7.68;3.80;;;19.00;61.10;;;;;;4981852;28;20058;-50
2022/05/26 05:57:38;;;;;;;7.85;3.38;;;19.00;60.60;;;;;;4988661;28;20042;-53
2022/05/26 06:00:08;;;;;;;7.95;4.18;;;19.00;60.60;;;;;;4989100;28;20154;-49
2022/05/26 06:02:35;;;;;;;7.38;4.47;;;19.10;60.60;;;;;;4988631;28;20112;-49
2022/05/26 06:05:08;;;;;;;7.25;4.10;;;19.10;60.60;;;;;;4991182;28;20045;-54
2022/05/26 06:07:40;;;;;;;8.60;4.25;;;19.10;60.60;;;;;;4995830;28;20446;-49
2022/05/26 06:10:14;;;;;;;7.50;4.85;;;19.20;60.60;;;;;;4989668;28;20116;-51
2022/05/26 06:12:42;;;;;;;9.88;4.93;;;19.20;60.80;;;;;;4991637;28;20053;-50
2022/05/26 06:15:19;;;;;;;8.30;5.43;;;19.20;60.50;;;;;;5075225;23;20475;31
2022/05/26 06:17:48;;;;;;;9.68;5.13;;;19.40;60.60;;;;;;4963103;28;20055;-49
2022/05/26 06:20:17;;;;;;;12.27;4.78;;;19.30;60.10;;;;;;4969690;28;20126;-50
2022/05/26 06:22:50;;;;;;;9.20;5.25;;;19.30;60.00;;;;;;4970602;28;20133;-48
2022/05/26 06:25:19;;;;;;;;;;;19.40;60.10;;;;;;4968567;28;20050;-49
2022/05/26 06:30:34;;;;;;;10.98;5.95;;;19.40;59.80;;;;;;4976794;28;20046;-49
2022/05/26 06:38:41;;;;;;;9.18;5.22;;;19.50;59.90;;;;;;4931140;28;20074;-52
2022/05/26 06:43:57;;;;;;;12.07;5.88;;;19.60;59.70;;;;;;4961603;28;20133;-49
2022/05/26 06:46:23;;;;;;;9.68;5.20;;;19.70;59.20;;;;;;4961796;28;20055;-48
2022/05/26 06:48:50;;;;;;;8.32;5.28;;;19.70;59.20;;;;;;4960503;28;20499;-50
2022/05/26 06:51:17;;;;;;;10.82;5.20;;;19.70;59.30;;;;;;4968367;28;20150;-53
2022/05/26 06:53:44;;;;;;;12.20;6.15;;;19.80;59.40;;;;;;4963120;28;20071;-53
2022/05/26 06:56:11;;;;;;;8.52;4.80;;;19.90;59.30;;;;;;4969417;28;20101;-50
2022/05/26 06:58:38;;;;;;;9.27;6.00;;;19.90;59.20;;;;;;4964884;28;20043;-52
2022/05/26 07:01:10;;;;;;;8.50;5.38;;;19.90;58.90;;;;;;4973555;28;20050;-50
2022/05/26 07:03:37;;;;;;;7.90;5.28;;;20.00;58.90;;;;;;4965852;28;20042;-51
2022/05/26 07:06:04;;;;;;;8.05;5.20;;;20.00;58.60;;;;;;4966021;28;20050;-53
2022/05/26 07:08:30;;;;;;;9.65;4.97;;;20.10;58.50;;;;;;4964570;28;20580;-53
2022/05/26 07:11:00;;;;;;;13.80;5.40;;;20.10;58.30;;;;;;4970888;28;20035;-50
2022/05/26 07:13:27;;;;;;;9.65;5.75;;;20.10;58.20;;;;;;4959471;28;20299;-50
2022/05/26 07:15:54;;;;;;;8.10;5.53;;;20.20;58.20;;;;;;4968802;28;20051;-53
2022/05/26 07:18:21;;;;;;;11.40;5.55;;;20.20;58.20;;;;;;4958924;28;20038;-51
2022/05/26 07:20:47;;;;;;;7.85;5.53;;;20.20;58.00;;;;;;4970363;28;20092;-53
2022/05/26 07:23:14;;;;;;;11.65;5.43;;;20.20;58.10;;;;;;4959610;28;20046;-49
2022/05/26 07:25:43;;;;;;;7.95;4.28;;;20.30;58.20;;;;;;4968998;28;20049;-54
2022/05/26 07:28:13;;;;;;;8.43;5.20;;;20.40;57.80;;;;;;4960451;28;20038;-53
2022/05/26 07:30:40;;;;;;;10.63;5.57;;;20.40;57.60;;;;;;4969277;28;20051;-52
2022/05/26 07:33:08;;;;;;;6.97;4.57;;;20.50;57.30;;;;;;4959833;28;20046;-52
2022/05/26 07:35:35;;;;;;;9.25;5.78;;;20.60;57.20;;;;;;4969584;28;20038;-50
2022/05/26 07:43:34;;;;;;;8.18;4.88;;;20.70;57.00;;;;;;4948047;28;20169;-53
2022/05/26 07:46:02;;;;;;;8.65;4.97;;;20.80;56.50;;;;;;4973742;28;20043;-53
2022/05/26 07:48:29;;;;;;;9.05;4.47;;;20.80;56.40;;;;;;4960366;28;20422;-51
2022/05/26 07:50:56;;;;;;;7.78;4.57;;;20.90;56.20;;;;;;4968172;28;20235;-51
2022/05/26 07:53:23;;;;;;;8.05;4.97;;;20.90;56.00;;;;;;4952412;28;20085;-53
2022/05/26 07:55:50;;;;;;;8.07;4.25;;;20.90;55.80;;;;;;4951038;28;20074;-51
2022/05/26 07:58:16;;;;;;;9.20;4.65;;;20.90;56.10;;;;;;4953642;28;20050;-50
2022/05/26 08:00:43;;;;;;;9.98;4.55;;;21.00;55.70;;;;;;4969212;28;20142;-52
2022/05/26 08:03:10;;;;;;;8.13;4.60;;;21.00;55.60;;;;;;4966687;28;20495;-52
2022/05/26 08:05:38;;;;;;;10.80;4.82;;;21.10;55.30;;;;;;4974791;28;20074;-50
2022/05/26 08:08:06;;;;;;;9.15;4.47;;;21.10;55.20;;;;;;4958872;28;20367;-51
2022/05/26 08:10:32;;;;;;;7.28;3.72;;;21.10;54.90;;;;;;4973035;28;20039;-52
2022/05/26 08:12:59;;;;;;;8.02;4.18;;;21.10;55.00;;;;;;4967778;28;20748;-48
2022/05/26 08:15:27;;;;;;;5.35;4.40;;;21.10;55.20;;;;;;4974404;28;20050;-54
2022/05/26 08:17:53;;;;;;;9.40;4.50;;;21.10;55.10;;;;;;4958451;28;20082;-54
2022/05/26 08:20:22;;;;;;;6.65;4.05;;;21.10;55.20;;;;;;4969611;28;20671;-53
2022/05/26 08:22:49;;;;;;;6.70;4.10;;;21.10;55.50;;;;;;4963952;28;20129;-54
2022/05/26 08:25:16;;;;;;;7.32;3.75;;;21.40;56.10;;;;;;4971159;28;20414;-52
2022/05/26 08:27:42;;;;;;;6.25;3.75;;;21.30;55.10;;;;;;4966036;28;20074;-54
2022/05/26 08:30:10;;;;;;;6.88;3.58;;;21.30;54.80;;;;;;4964901;28;20061;-51
2022/05/26 08:32:36;;;;;;;7.60;3.40;;;21.30;54.50;;;;;;4970959;28;20575;-50
2022/05/26 08:35:08;;;;;;;7.45;3.63;;;21.40;54.60;;;;;;4971372;28;20089;-52
2022/05/26 08:37:35;;;;;;;7.22;4.22;;;21.40;53.70;;;;;;4967721;28;20229;-51
2022/05/26 08:40:04;;;;;;;5.20;3.20;;;21.50;53.90;;;;;;4950576;28;20045;-50
2022/05/26 08:42:34;;;;;;;5.38;3.72;;;21.50;53.50;;;;;;4969811;28;20483;-53
2022/05/26 08:45:11;;;;;;;4.10;2.95;;;21.50;53.20;;;;;;4970806;28;20074;-53
2022/05/26 08:47:44;;;;;;;4.72;2.65;;;21.60;53.40;;;;;;4973242;28;20462;-52
2022/05/26 08:50:23;;;;;;;6.35;3.22;;;21.60;54.60;;;;;;4967628;28;20097;-52
2022/05/26 08:53:04;;;;;;;6.75;3.33;;;21.60;53.30;;;;;;4954732;28;20043;-53
2022/05/26 08:55:39;;;;;;;4.63;2.60;;;21.60;53.60;;;;;;4968328;28;20074;-50
2022/05/26 08:58:17;;;;;;;6.57;3.13;;;21.70;53.60;;;;;;4964584;28;20527;-50
2022/05/26 09:00:51;;;;;;;8.00;4.25;;;21.80;52.80;;;;;;4966066;28;20062;-53
2022/05/26 09:03:28;;;;;;;6.53;2.67;;;21.80;52.60;;;;;;4964760;28;20046;-50
2022/05/26 09:06:11;;;;;;;5.63;3.15;;;21.80;52.50;;;;;;4966702;28;20137;-49
2022/05/26 09:14:25;;;;;;;6.63;3.72;;;21.90;52.50;;;;;;4956489;28;20380;-50
2022/05/26 09:17:03;;;;;;;6.22;3.25;;;21.90;52.40;;;;;;4962721;28;20109;-50
2022/05/26 09:19:50;;;;;;;6.95;2.97;;;21.90;53.60;;;;;;4953440;28;20566;-53
2022/05/26 09:22:35;;;;;;;4.63;3.35;;;21.90;53.90;;;;;;4963550;28;20057;-50
2022/05/26 09:25:01;;;;;;;5.97;3.70;;;22.00;53.00;;;;;;4958916;28;20038;-52
2022/05/26 09:27:34;;;;;;;6.85;3.53;;;22.00;52.50;;;;;;4962664;28;20127;-50
2022/05/26 09:30:33;;;;;;;8.68;2.88;;;22.10;52.20;;;;;;4953095;28;20042;-51
2022/05/26 09:33:01;;;;;;;6.30;2.95;;;22.10;52.20;;;;;;4921510;28;20164;-53
2022/05/26 09:35:31;;;;;;;6.25;2.92;;;22.10;51.90;;;;;;4966072;28;20059;-48
2022/05/26 09:38:03;;;;;;;6.68;3.63;;;22.10;51.90;;;;;;4965738;28;20363;-50
2022/05/26 09:40:40;;;;;;;4.47;3.30;;;22.10;52.40;;;;;;4969985;28;20051;-49
2022/05/26 09:43:15;;;;;;;9.82;4.00;;;22.20;52.40;;;;;;4957840;28;20566;-51
2022/05/26 09:45:44;;;;;;;5.38;2.83;;;22.20;52.30;;;;;;4973205;28;20057;-51
2022/05/26 09:48:37;;;;;;;4.90;2.75;;;22.30;51.60;;;;;;4961372;28;20104;-49
2022/05/26 09:51:30;;;;;;;5.13;2.90;;;22.30;53.40;;;;;;4948136;28;20114;-49
2022/05/26 09:53:57;;;;;;;4.85;2.80;;;22.40;53.30;;;;;;4965193;28;20051;-49
2022/05/26 09:56:31;;;;;;;6.80;3.78;;;22.40;52.20;;;;;;4979588;28;20069;-49
2022/05/26 09:58:58;;;;;;;4.50;2.75;;;22.50;51.60;;;;;;4971313;28;20113;-50
2022/05/26 10:01:27;;;;;;;4.82;3.08;;;22.60;51.10;;;;;;4970996;28;20039;-50
2022/05/26 10:04:21;;;;;;;6.63;3.03;;;22.70;51.00;;;;;;4978265;28;20113;-49
2022/05/26 10:07:08;;;;;;;6.78;2.50;;;22.80;50.70;;;;;;4963868;28;20462;-52
2022/05/26 10:10:18;;;;;;;3.83;2.10;;;22.80;49.20;;;;;;4963785;28;20047;-51
2022/05/26 10:13:05;;;;;;;5.57;2.67;;;22.80;49.30;;;;;;4972018;28;20412;-50
2022/05/26 10:15:44;;;;;;;5.78;2.22;;;22.80;49.90;;;;;;4964010;28;20074;-49
2022/05/26 10:18:29;;;;;;;3.80;2.47;;;22.80;50.30;;;;;;4974259;28;20035;-52
2022/05/26 10:21:28;;;;;;;5.45;2.28;;;22.80;49.70;;;;;;4972382;28;20074;-51
2022/05/26 10:24:26;;;;;;;6.72;2.50;;;22.90;48.90;;;;;;4978596;28;20038;-49
2022/05/26 10:27:09;;;;;;;4.25;2.50;;;22.90;48.70;;;;;;4968189;28;20070;-51
2022/05/26 10:30:09;;;;;;;3.60;2.10;;;22.90;49.60;;;;;;4973294;28;20042;-49
2022/05/26 10:32:57;;;;;;;6.35;2.45;;;22.90;48.90;;;;;;4942635;28;20125;-51
2022/05/26 10:35:56;;;;;;;3.38;2.28;;;23.00;48.20;;;;;;4971786;28;20053;-49
2022/05/26 10:39:02;;;;;;;6.15;2.65;;;23.00;47.60;;;;;;4973577;28;20070;-52
2022/05/26 10:41:47;;;;;;;6.35;2.45;;;23.00;47.90;;;;;;4984931;28;20047;-48
2022/05/26 10:44:40;;;;;;;2.50;2.30;;;23.00;47.90;;;;;;4974438;28;20470;-49
2022/05/26 10:47:27;;;;;;;5.68;2.45;;;23.00;48.30;;;;;;4973953;28;20055;-53
2022/05/26 10:50:21;;;;;;;4.35;2.28;;;23.20;48.30;;;;;;4972707;28;20054;-50
2022/05/26 10:53:30;;;;;;;4.07;2.20;;;23.20;48.20;;;;;;4945981;28;20050;-51
2022/05/26 10:56:21;;;;;;;3.65;2.80;;;23.30;48.10;;;;;;4908784;28;20078;-49
2022/05/26 10:58:53;;;;;;;2.42;1.80;;;23.40;47.90;;;;;;4974172;28;20094;-53
2022/05/26 11:01:42;;;;;;;3.08;2.35;;;23.50;47.10;;;;;;4974659;28;20122;-51
2022/05/26 11:04:40;;;;;;;5.65;2.60;;;23.50;46.40;;;;;;4975908;28;20494;-53
2022/05/26 11:07:16;;;;;;;6.57;1.98;;;23.50;46.90;;;;;;4975574;28;20100;-52
2022/05/26 11:09:55;;;;;;;4.65;1.80;;;23.50;46.60;;;;;;4972697;28;20046;-50
2022/05/26 11:12:35;;;;;;;7.15;2.30;;;23.50;46.80;;;;;;4943765;28;20177;-50
2022/05/26 11:18:03;;;;;;;5.03;1.85;;;23.50;46.70;;;;;;4963076;28;20072;-54
2022/05/26 11:20:35;;;;;;;2.42;1.90;;;23.60;47.00;;;;;;4965869;28;20793;-52
2022/05/26 11:23:06;;;;;;;2.83;2.15;;;23.70;47.50;;;;;;4968826;28;20077;-52
2022/05/26 11:25:43;;;;;;;5.10;1.90;;;23.80;47.00;;;;;;4961634;28;20089;-54
2022/05/26 11:28:19;;;;;;;4.47;2.00;;;23.80;46.10;;;;;;4966852;28;20051;-51
2022/05/26 11:36:47;;;;;;;3.33;1.70;;;24.10;47.40;;;;;;4958921;28;19973;-49
2022/05/26 11:39:36;;;;;;;4.43;2.05;;;24.30;46.10;;;;;;4969903;28;20105;-50
2022/05/26 11:42:26;;;;;;;3.88;1.80;;;24.30;45.30;;;;;;4957078;28;20089;-51
2022/05/26 11:45:11;;;;;;;3.75;1.65;;;24.20;45.10;;;;;;4967606;28;20068;-49
2022/05/26 11:48:03;;;;;;;2.88;1.60;;;24.10;44.50;;;;;;4955833;28;20070;-49
2022/05/26 11:50:56;;;;;;;3.63;1.45;;;24.10;44.20;;;;;;4963076;28;20097;-54
2022/05/26 11:53:32;;;;;;;3.33;1.80;;;24.00;44.80;;;;;;4959930;28;20047;-51
2022/05/26 11:56:04;;;;;;;4.18;1.70;;;23.90;45.20;;;;;;4956355;28;20047;-51
2022/05/26 11:58:38;;;;;;;5.47;1.90;;;23.90;45.20;;;;;;4970499;28;20047;-49
2022/05/26 12:01:13;;;;;;;2.45;1.88;;;23.90;45.60;;;;;;4958306;28;20474;-52
2022/05/26 12:03:53;;;;;;;3.30;1.75;;;24.00;45.40;;;;;;4965927;28;20062;-51
2022/05/26 12:06:38;;;;;;;4.63;1.85;;;24.00;45.70;;;;;;4955849;28;20055;-50
2022/05/26 12:09:17;;;;;;;3.88;1.70;;;24.10;45.80;;;;;;4964043;28;20074;-51
2022/05/26 12:12:01;;;;;;;4.75;2.53;;;24.20;46.50;;;;;;4957835;28;20098;-53
2022/05/26 12:14:34;;;;;;;4.53;1.80;;;24.30;45.70;;;;;;4963075;28;20182;-49
2022/05/26 12:17:23;;;;;;;2.13;1.75;;;24.40;45.30;;;;;;4960297;28;20038;-51
2022/05/26 12:19:50;;;;;;;2.72;1.80;;;24.50;45.40;;;;;;4969178;28;20042;-49
2022/05/26 12:22:27;;;;;;;4.88;1.98;;;24.60;44.60;;;;;;4956677;28;20066;-50
2022/05/26 12:25:14;;;;;;;4.10;2.08;;;24.60;44.20;;;;;;4969108;28;20419;-52
2022/05/26 12:27:56;;;;;;;2.97;2.10;;;24.60;44.10;;;;;;4961098;28;20117;-49
2022/05/26 12:30:44;;;;;;;4.53;2.15;;;24.70;44.30;;;;;;4966459;28;20049;-54
2022/05/26 12:33:20;;;;;;;5.88;2.17;;;24.70;44.80;;;;;;4965734;28;20049;-50
2022/05/26 12:36:21;;;;;;;4.57;1.80;;;24.70;45.00;;;;;;4959864;28;20050;-49
2022/05/26 12:39:14;;;;;;;2.95;1.98;;;24.90;44.10;;;;;;4983244;23;20475;-54
2022/05/26 12:42:07;;;;;;;5.60;2.25;;;25.00;44.60;;;;;;4971426;28;20046;-54
2022/05/26 12:44:47;;;;;;;5.57;2.00;;;25.20;43.80;;;;;;4986388;28;20041;-53
2022/05/26 12:47:32;;;;;;;5.05;1.90;;;25.30;43.70;;;;;;4974136;28;20057;-54
2022/05/26 12:50:05;;;;;;;7.78;1.60;;;25.50;43.70;;;;;;4986168;28;20038;-53
2022/05/26 12:52:53;;;;;;;3.00;1.27;;;25.60;42.70;;;;;;4974094;28;20050;-53
2022/05/26 12:55:33;;;;;;;6.47;2.15;;;25.80;42.10;;;;;;4982369;28;20100;-54
2022/05/26 12:58:07;;;;;;;3.63;1.40;;;25.90;41.90;;;;;;4983974;28;20042;-54
2022/05/26 13:00:37;;;;;;;4.00;1.73;;;26.10;41.60;;;;;;4980381;28;20042;-54
2022/05/26 13:03:13;;;;;;;3.95;1.33;;;26.20;41.40;;;;;;4980756;28;20454;-54
2022/05/26 13:05:42;;;;;;;2.55;2.13;;;26.30;40.30;;;;;;4976040;28;20546;-53
2022/05/26 13:08:23;;;;;;;4.13;1.70;;;26.40;40.40;;;;;;4988964;28;20112;-52
2022/05/26 13:10:53;;;;;;;6.40;1.40;;;26.50;41.50;;;;;;4971659;28;20170;-53
2022/05/26 13:13:29;;;;;;;2.05;1.45;;;26.60;40.40;;;;;;4989471;28;20104;-50
2022/05/26 13:16:35;;;;;;;2.75;1.23;;;26.70;40.30;;;;;;4979686;28;20356;-51
2022/05/26 13:19:08;;;;;;;2.90;1.50;;;26.80;39.90;;;;;;4979434;28;20034;-52
2022/05/26 13:21:35;;;;;;;2.13;1.50;;;27.00;39.60;;;;;;4975399;28;20093;-53
2022/05/26 13:24:03;;;;;;;2.50;1.40;;;27.00;39.40;;;;;;4987646;28;20126;-51
2022/05/26 13:26:30;;;;;;;4.07;2.33;;;26.90;39.60;;;;;;4977840;28;20054;-54
2022/05/26 13:29:00;;;;;;;6.15;1.98;;;27.00;39.40;;;;;;4986401;28;20451;-53
2022/05/26 13:34:14;;;;;;;2.15;1.40;;;27.00;39.00;;;;;;4986641;28;20069;-51
2022/05/26 13:36:47;;;;;;;2.78;1.58;;;27.00;39.30;;;;;;4979848;28;20070;-49
2022/05/26 13:39:21;;;;;;;3.70;1.50;;;26.90;39.40;;;;;;4983528;28;20046;-53
2022/05/26 13:41:51;;;;;;;4.15;1.77;;;26.90;38.90;;;;;;4976761;28;20581;-52
2022/05/26 13:44:34;;;;;;;3.58;1.63;;;26.80;38.30;;;;;;4987710;28;20104;-54
2022/05/26 13:47:04;;;;;;;2.15;1.38;;;26.60;38.20;;;;;;4979634;28;20092;-52
2022/05/26 13:49:37;;;;;;;4.40;1.63;;;26.60;39.40;;;;;;4984840;28;20065;-54
2022/05/26 13:52:28;;;;;;;2.92;1.40;;;26.50;39.30;;;;;;4979326;28;20039;-52
2022/05/26 13:54:56;;;;;;;4.88;1.60;;;26.50;39.20;;;;;;4983671;28;20059;-53
2022/05/26 13:57:23;;;;;;;3.28;1.92;;;26.50;39.70;;;;;;4975771;28;20542;-54
2022/05/26 14:00:05;;;;;;;2.75;1.52;;;26.40;39.80;;;;;;4981533;28;20104;-53
2022/05/26 14:02:35;;;;;;;2.55;1.40;;;26.30;39.60;;;;;;4978441;28;20070;-53
2022/05/26 14:05:08;;;;;;;4.38;1.50;;;26.30;40.10;;;;;;4984791;28;20085;-50
2022/05/26 14:07:58;;;;;;;3.53;1.27;;;26.50;40.80;;;;;;4972272;28;20042;-54
2022/05/26 14:10:36;;;;;;;4.38;1.42;;;26.70;40.20;;;;;;4982589;28;20050;-53
2022/05/26 14:13:10;;;;;;;2.28;0.90;;;27.00;39.50;;;;;;4988026;28;20035;-54
2022/05/26 14:15:41;;;;;;;2.33;1.02;;;27.10;39.50;;;;;;4979212;28;20498;-55